Time;durP1;ratioP1;P1;durP2;ratioP2;P2;SDS_P1;SDS_P2;PMS_P1;PMS_P2;Temp;Humidity;BMP_temperature;BMP_pressure;BME280_temperature;BME280_humidity;BME280_pressure;Samples;Min_cycle;Max_cycle;Signal;HPM_P1;HPM_P2
2023/09/29 00:00:33;;;;;;;12.57;9.87;;;;;;;13.17;84.44;101242.03;5006839;28;20312;-74
2023/09/29 00:03:01;;;;;;;16.97;9.43;;;;;;;13.16;84.72;101237.06;4991458;28;20247;-73
2023/09/29 00:05:30;;;;;;;13.10;9.30;;;;;;;13.14;84.70;101233.97;5006515;28;20591;-74
2023/09/29 00:07:56;;;;;;;13.00;10.10;;;;;;;13.12;85.19;101231.63;5003272;28;20210;-73
2023/09/29 00:10:23;;;;;;;15.20;10.57;;;;;;;13.11;85.00;101239.91;4985379;28;20729;-74
2023/09/29 00:12:50;;;;;;;14.47;9.43;;;;;;;13.09;85.27;101234.16;4999365;28;20291;-73
2023/09/29 00:15:18;;;;;;;13.70;10.30;;;;;;;13.07;85.27;101236.34;5004873;28;20207;-74
2023/09/29 00:17:44;;;;;;;13.00;10.03;;;;;;;13.05;85.09;101236.69;4984521;28;20238;-73
2023/09/29 00:20:18;;;;;;;12.60;10.00;;;;;;;13.04;85.24;101229.81;5003145;28;20224;-74
2023/09/29 00:22:44;;;;;;;12.03;10.00;;;;;;;13.03;85.24;101225.63;5002823;28;20754;-74
2023/09/29 00:25:11;;;;;;;15.77;10.53;;;;;;;13.01;84.92;101229.72;5004780;28;20211;-73
2023/09/29 00:27:37;;;;;;;12.67;9.97;;;;;;;12.99;85.12;101227.38;5003675;28;20206;-73
2023/09/29 00:30:05;;;;;;;14.27;10.40;;;;;;;12.97;84.77;101240.19;4988244;28;20584;-73
2023/09/29 00:32:32;;;;;;;16.20;10.43;;;;;;;12.97;85.27;101234.09;5003353;28;20268;-74
2023/09/29 00:34:59;;;;;;;14.60;11.00;;;;;;;12.95;85.21;101233.63;4988522;28;20923;-74
2023/09/29 00:37:26;;;;;;;12.67;10.23;;;;;;;12.94;85.44;101234.75;5003839;28;20214;-74
2023/09/29 00:39:55;;;;;;;13.87;10.17;;;;;;;12.92;85.43;101228.97;4989210;28;20235;-74
2023/09/29 00:42:22;;;;;;;15.47;9.77;;;;;;;12.91;85.97;101232.72;5009463;28;20218;-73
2023/09/29 00:44:48;;;;;;;13.07;9.87;;;;;;;12.90;85.99;101231.97;5007834;28;20284;-74
2023/09/29 00:47:15;;;;;;;14.60;9.80;;;;;;;12.87;85.71;101231.81;5007809;28;20209;-74
2023/09/29 00:49:42;;;;;;;15.90;10.17;;;;;;;12.87;86.20;101235.25;5011265;28;20224;-74
2023/09/29 00:52:09;;;;;;;13.57;10.73;;;;;;;12.86;86.32;101222.31;5011258;28;20286;-73
2023/09/29 00:54:37;;;;;;;13.40;10.10;;;;;;;12.84;86.13;101222.63;5009715;28;20234;-74
2023/09/29 00:57:05;;;;;;;13.93;10.90;;;;;;;12.83;86.26;101215.78;4990890;28;20310;-74
2023/09/29 00:59:34;;;;;;;15.77;11.13;;;;;;;12.84;86.46;101208.63;5008193;28;20247;-74
2023/09/29 01:02:09;;;;;;;13.37;10.53;;;;;;;12.81;86.54;101210.06;4991571;28;20203;-73
2023/09/29 01:04:35;;;;;;;14.00;10.30;;;;;;;12.80;87.04;101211.16;5009410;28;20209;-73
2023/09/29 01:07:03;;;;;;;14.97;11.07;;;;;;;12.79;86.47;101208.81;4993379;28;20201;-71
2023/09/29 01:09:30;;;;;;;12.63;10.27;;;;;;;12.77;86.17;101203.84;5010174;28;20230;-74
2023/09/29 01:12:00;;;;;;;14.53;10.07;;;;;;;12.74;86.37;101198.41;4993439;28;20225;-73
2023/09/29 01:14:26;;;;;;;13.60;9.97;;;;;;;12.75;86.75;101202.63;4991024;28;20225;-73
2023/09/29 01:16:52;;;;;;;13.40;10.57;;;;;;;12.74;86.87;101193.13;4991172;28;20221;-73
2023/09/29 01:19:20;;;;;;;15.23;9.67;;;;;;;12.72;86.59;101190.78;4990907;28;20830;-73
2023/09/29 01:21:46;;;;;;;11.67;10.00;;;;;;;12.70;86.83;101195.66;5012108;28;20593;-73
2023/09/29 01:24:14;;;;;;;12.70;10.27;;;;;;;12.69;86.60;101206.56;5010460;28;20693;-74
2023/09/29 01:26:44;;;;;;;16.97;10.30;;;;;;;12.67;86.79;101198.94;4991575;28;20224;-73
2023/09/29 01:29:11;;;;;;;16.03;10.53;;;;;;;12.65;86.70;101192.41;4991729;28;20253;-73
2023/09/29 01:31:39;;;;;;;13.30;9.83;;;;;;;12.65;86.91;101200.34;5008989;28;20214;-73
2023/09/29 01:34:05;;;;;;;13.60;10.67;;;;;;;12.66;87.45;101184.13;5008378;28;20214;-73
2023/09/29 01:36:32;;;;;;;13.43;10.70;;;;;;;12.63;87.25;101184.78;4994677;28;20218;-74
2023/09/29 01:38:59;;;;;;;12.77;9.87;;;;;;;12.63;87.22;101190.06;5006898;28;20297;-72
2023/09/29 01:41:27;;;;;;;15.43;11.00;;;;;;;12.61;87.14;101184.34;5006255;28;20203;-74
2023/09/29 01:43:53;;;;;;;13.00;10.60;;;;;;;12.59;86.47;101180.47;5009101;28;20610;-73
2023/09/29 01:46:19;;;;;;;16.80;11.50;;;;;;;12.59;87.05;101177.81;4992425;28;20539;-73
2023/09/29 01:48:46;;;;;;;16.60;11.97;;;;;;;12.60;87.25;101184.66;4989773;28;20220;-74
2023/09/29 01:51:12;;;;;;;19.77;13.50;;;;;;;12.60;87.29;101196.03;4989010;28;20695;-74
2023/09/29 01:53:38;;;;;;;14.87;11.97;;;;;;;12.60;87.75;101197.91;4993658;28;20751;-73
2023/09/29 01:56:04;;;;;;;17.77;12.57;;;;;;;12.61;88.11;101204.75;4988835;28;20199;-73
2023/09/29 01:58:33;;;;;;;16.43;11.43;;;;;;;12.60;88.16;101203.97;4990901;28;20212;-73
2023/09/29 02:00:59;;;;;;;15.73;11.20;;;;;;;12.61;88.21;101205.53;4992814;28;20747;-73
2023/09/29 02:03:26;;;;;;;17.40;12.17;;;;;;;12.61;88.10;101207.38;5006363;28;20207;-73
2023/09/29 02:05:52;;;;;;;16.77;12.87;;;;;;;12.61;88.05;101194.16;4991599;28;20269;-74
2023/09/29 02:08:19;;;;;;;17.13;12.37;;;;;;;12.61;88.51;101197.59;5006052;28;20199;-73
2023/09/29 02:10:48;;;;;;;16.63;11.93;;;;;;;12.59;88.71;101199.78;4992258;28;20222;-73
2023/09/29 02:13:15;;;;;;;16.10;11.50;;;;;;;12.59;88.52;101201.66;4990336;28;20215;-74
2023/09/29 02:15:43;;;;;;;18.03;12.20;;;;;;;12.59;88.61;101201.66;4992295;28;20233;-74
2023/09/29 02:18:10;;;;;;;16.03;12.27;;;;;;;12.60;88.81;101195.25;5003800;28;20227;-74
2023/09/29 02:20:38;;;;;;;17.23;11.97;;;;;;;12.58;88.71;101198.22;5005821;28;20230;-73
2023/09/29 02:23:07;;;;;;;16.23;12.00;;;;;;;12.59;89.40;101199.78;4990918;28;20697;-74
2023/09/29 02:25:33;;;;;;;18.43;12.70;;;;;;;12.58;88.61;101200.88;4990873;28;20204;-73
2023/09/29 02:28:00;;;;;;;16.20;12.27;;;;;;;12.55;88.19;101198.88;4990783;28;20195;-73
2023/09/29 02:30:28;;;;;;;16.20;12.97;;;;;;;12.54;89.14;101199.19;4991598;28;20234;-73
2023/09/29 02:32:56;;;;;;;16.23;12.33;;;;;;;12.55;89.01;101192.78;4989771;28;20562;-74
2023/09/29 02:35:23;;;;;;;16.53;11.97;;;;;;;12.52;89.08;101196.84;4989182;28;20231;-73
2023/09/29 02:37:52;;;;;;;19.43;12.73;;;;;;;12.53;89.17;101193.09;4981505;28;20392;-73
2023/09/29 02:40:19;;;;;;;17.07;12.77;;;;;;;12.50;88.13;101196.41;4989497;28;20228;-73
2023/09/29 02:42:45;;;;;;;18.00;12.17;;;;;;;12.49;88.27;101188.78;4992893;28;20257;-74
2023/09/29 02:45:13;;;;;;;17.80;12.80;;;;;;;12.47;88.15;101183.06;5007045;28;20276;-73
2023/09/29 02:47:41;;;;;;;15.87;10.93;;;;;;;12.48;88.77;101192.53;4993465;28;20319;-73
2023/09/29 02:50:10;;;;;;;16.67;11.70;;;;;;;12.46;88.59;101192.84;4996848;28;20934;-74
2023/09/29 02:52:37;;;;;;;14.30;11.87;;;;;;;12.47;88.91;101194.41;5012979;28;20213;-72
2023/09/29 02:55:05;;;;;;;18.17;12.43;;;;;;;12.45;88.67;101187.88;5015510;28;20288;-74
2023/09/29 02:57:32;;;;;;;14.83;12.30;;;;;;;12.42;88.78;101186.66;5006506;28;20224;-74
2023/09/29 02:59:58;;;;;;;17.87;12.00;;;;;;;12.40;88.73;101178.25;4977359;28;20241;-73
2023/09/29 03:02:24;;;;;;;17.50;11.33;;;;;;;12.39;88.56;101181.22;5001479;28;20205;-74
2023/09/29 03:04:51;;;;;;;15.77;11.50;;;;;;;12.38;88.46;101184.97;5002443;28;20222;-72
2023/09/29 03:07:19;;;;;;;17.70;11.33;;;;;;;12.34;88.80;101192.78;4989650;28;20206;-73
2023/09/29 03:09:46;;;;;;;15.50;11.97;;;;;;;12.36;88.71;101197.75;4999645;28;20224;-74
2023/09/29 03:12:13;;;;;;;18.33;12.00;;;;;;;12.33;89.15;101196.53;5004622;28;20201;-73
2023/09/29 03:14:39;;;;;;;16.90;11.80;;;;;;;12.32;88.83;101196.84;5003977;28;20214;-72
2023/09/29 03:17:05;;;;;;;15.43;12.03;;;;;;;12.30;88.49;101197.19;5007197;28;20235;-73
2023/09/29 03:19:32;;;;;;;14.77;10.97;;;;;;;12.27;88.79;101200.44;4988338;28;20229;-72
2023/09/29 03:21:59;;;;;;;15.10;11.13;;;;;;;12.25;88.88;101197.38;4991069;28;20217;-74
2023/09/29 03:24:27;;;;;;;16.77;11.30;;;;;;;12.25;88.60;101191.28;5001139;28;20200;-73
2023/09/29 03:26:54;;;;;;;16.43;11.23;;;;;;;12.22;89.15;101192.69;5007458;28;20231;-72
2023/09/29 03:29:20;;;;;;;17.90;11.63;;;;;;;12.23;89.40;101183.69;5004724;28;20220;-74
2023/09/29 03:31:47;;;;;;;15.67;12.80;;;;;;;12.20;89.28;101179.00;4999410;28;20618;-73
2023/09/29 03:34:14;;;;;;;17.13;12.57;;;;;;;12.19;89.26;101177.47;5009051;28;20591;-74
2023/09/29 03:36:41;;;;;;;16.83;13.37;;;;;;;12.19;89.79;101174.81;5008616;28;20223;-74
2023/09/29 03:39:09;;;;;;;15.80;13.03;;;;;;;12.19;89.64;101169.53;5010514;28;20255;-74
2023/09/29 03:41:37;;;;;;;15.37;11.97;;;;;;;12.18;89.45;101178.56;5007026;28;20681;-73
2023/09/29 03:44:04;;;;;;;16.47;12.13;;;;;;;12.18;89.58;101167.97;5006910;28;20204;-73
2023/09/29 03:46:30;;;;;;;16.87;13.77;;;;;;;12.17;89.89;101179.66;5008063;28;20217;-73
2023/09/29 03:48:57;;;;;;;16.17;12.27;;;;;;;12.18;89.78;101169.84;5004793;28;20226;-73
2023/09/29 03:51:24;;;;;;;16.13;13.40;;;;;;;12.16;89.56;101170.16;5005673;28;20792;-74
2023/09/29 03:53:50;;;;;;;16.90;11.97;;;;;;;12.16;89.56;101174.69;5003936;28;20216;-72
2023/09/29 03:56:17;;;;;;;16.83;12.97;;;;;;;12.15;89.87;101173.91;5005825;28;20205;-74
2023/09/29 03:58:45;;;;;;;19.63;13.33;;;;;;;12.15;90.20;101178.41;5003600;28;20240;-74
2023/09/29 04:01:12;;;;;;;19.70;14.13;;;;;;;12.13;89.44;101175.31;5003776;28;20192;-74
2023/09/29 04:03:39;;;;;;;17.43;13.50;;;;;;;12.13;89.93;101170.81;5004388;28;20215;-71
2023/09/29 04:06:05;;;;;;;16.13;12.97;;;;;;;12.13;90.29;101167.38;5003966;28;20663;-73
2023/09/29 04:08:32;;;;;;;18.23;12.73;;;;;;;12.12;90.00;101171.13;4982667;28;20586;-74
2023/09/29 04:10:58;;;;;;;17.13;13.30;;;;;;;12.11;90.44;101169.59;5005390;28;20287;-74
2023/09/29 04:13:25;;;;;;;17.03;12.03;;;;;;;12.09;90.17;101171.75;5002357;28;20695;-74
2023/09/29 04:15:53;;;;;;;22.47;13.20;;;;;;;12.07;89.95;101163.38;5006672;28;20341;-74
2023/09/29 04:18:19;;;;;;;15.70;11.70;;;;;;;12.05;90.16;101168.97;5007682;28;20212;-74
2023/09/29 04:20:45;;;;;;;15.57;12.00;;;;;;;12.05;89.87;101176.13;5008179;28;20232;-73
2023/09/29 04:23:12;;;;;;;15.87;12.53;;;;;;;12.02;90.20;101168.84;5007325;28;20820;-73
2023/09/29 04:25:38;;;;;;;15.03;12.13;;;;;;;11.99;90.18;101172.91;5007986;28;20667;-74
2023/09/29 04:28:05;;;;;;;15.20;11.93;;;;;;;11.97;89.70;101169.03;5010060;28;20204;-73
2023/09/29 04:30:31;;;;;;;20.50;12.80;;;;;;;11.95;89.87;101179.94;4992909;28;20237;-74
2023/09/29 04:32:59;;;;;;;14.50;11.27;;;;;;;11.94;90.04;101178.38;5007811;28;20284;-73
2023/09/29 04:35:25;;;;;;;21.37;12.40;;;;;;;11.92;90.22;101174.50;5007262;28;21402;-73
2023/09/29 04:37:52;;;;;;;20.17;13.40;;;;;;;11.91;90.61;101173.72;4993498;28;20564;-73
2023/09/29 04:40:19;;;;;;;15.93;12.43;;;;;;;11.89;89.95;101175.13;5010104;28;20236;-73
2023/09/29 04:42:45;;;;;;;19.43;13.17;;;;;;;11.87;89.93;101167.53;5009336;28;20205;-72
2023/09/29 04:45:12;;;;;;;18.00;11.90;;;;;;;11.86;90.51;101167.84;5008590;28;20218;-73
2023/09/29 04:47:38;;;;;;;17.43;13.47;;;;;;;11.85;90.41;101164.41;5007776;28;20206;-73
2023/09/29 04:50:08;;;;;;;17.03;12.60;;;;;;;11.83;90.22;101177.19;4981780;28;20316;-73
2023/09/29 04:52:35;;;;;;;18.77;12.73;;;;;;;11.82;90.48;101180.94;4990354;28;20341;-73
2023/09/29 04:55:01;;;;;;;20.57;13.47;;;;;;;11.80;90.20;101182.34;5007525;28;20311;-74
2023/09/29 04:57:27;;;;;;;16.70;12.60;;;;;;;11.80;90.30;101185.75;5006219;28;20216;-72
2023/09/29 04:59:54;;;;;;;20.13;13.80;;;;;;;11.82;90.84;101183.59;5008100;28;20222;-73
2023/09/29 05:02:21;;;;;;;17.70;12.53;;;;;;;11.78;90.86;101177.38;5005778;28;20207;-72
2023/09/29 05:04:47;;;;;;;17.93;13.33;;;;;;;11.78;90.73;101184.53;5009098;28;20665;-73
2023/09/29 05:07:15;;;;;;;20.67;14.07;;;;;;;11.78;91.11;101177.38;5006247;28;20660;-72
2023/09/29 05:09:41;;;;;;;16.47;13.07;;;;;;;11.78;90.97;101182.66;5007944;28;20296;-72
2023/09/29 05:12:07;;;;;;;18.60;13.83;;;;;;;11.77;90.51;101170.53;5007961;28;20206;-74
2023/09/29 05:14:34;;;;;;;19.23;14.10;;;;;;;11.78;90.48;101164.16;5011693;28;20594;-73
2023/09/29 05:17:00;;;;;;;22.00;14.30;;;;;;;11.76;90.29;101163.66;5010865;28;20196;-72
2023/09/29 05:19:26;;;;;;;21.30;14.10;;;;;;;11.80;91.01;101163.84;5010615;28;20607;-74
2023/09/29 05:21:53;;;;;;;17.77;13.60;;;;;;;11.79;90.98;101160.41;5011009;28;20943;-73
2023/09/29 05:24:20;;;;;;;18.33;13.23;;;;;;;11.81;90.70;101174.06;5002053;28;21022;-73
2023/09/29 05:26:47;;;;;;;19.47;13.80;;;;;;;11.82;90.60;101165.06;5007083;28;20550;-72
2023/09/29 05:29:13;;;;;;;17.57;13.50;;;;;;;11.86;91.54;101167.84;5007845;28;20575;-73
2023/09/29 05:31:40;;;;;;;19.90;14.20;;;;;;;11.89;91.16;101164.53;5008570;28;20694;-73
2023/09/29 05:34:06;;;;;;;21.67;13.13;;;;;;;11.89;91.46;101162.69;5007969;28;20211;-74
2023/09/29 05:36:32;;;;;;;22.23;15.03;;;;;;;11.92;91.51;101166.56;5008668;28;20196;-72
2023/09/29 05:38:59;;;;;;;19.33;14.40;;;;;;;11.93;91.58;101168.91;5011393;28;20238;-73
2023/09/29 05:41:26;;;;;;;19.33;14.77;;;;;;;11.96;91.05;101175.44;5009484;28;20200;-73
2023/09/29 05:43:53;;;;;;;15.17;12.60;;;;;;;11.99;90.89;101182.72;5010629;28;20209;-73
2023/09/29 05:46:19;;;;;;;20.37;15.33;;;;;;;12.05;91.66;101181.44;5010246;28;20697;-74
2023/09/29 05:48:45;;;;;;;19.40;14.37;;;;;;;12.09;92.14;101180.50;5007977;28;20207;-74
2023/09/29 05:51:12;;;;;;;16.97;14.00;;;;;;;12.13;91.70;101181.41;5011974;28;20276;-73
2023/09/29 05:53:39;;;;;;;19.80;14.10;;;;;;;12.15;91.80;101194.28;5007398;28;20251;-73
2023/09/29 05:56:08;;;;;;;25.67;17.00;;;;;;;12.18;91.40;101183.09;5008001;28;20218;-73
2023/09/29 05:58:36;;;;;;;22.43;16.53;;;;;;;12.22;91.38;101190.03;5007470;28;20271;-74
2023/09/29 06:01:10;;;;;;;24.17;15.67;;;;;;;12.25;91.67;101191.28;5009804;28;20242;-73
2023/09/29 06:03:37;;;;;;;19.70;15.80;;;;;;;12.31;91.67;101195.31;5006433;28;20193;-73
2023/09/29 06:06:04;;;;;;;22.23;16.27;;;;;;;12.32;91.69;101197.63;5007809;28;20261;-73
2023/09/29 06:08:30;;;;;;;26.10;17.57;;;;;;;12.38;91.33;101206.16;5004679;28;20202;-74
2023/09/29 06:10:57;;;;;;;26.53;17.87;;;;;;;12.43;92.00;101206.72;5007320;28;20201;-73
2023/09/29 06:13:23;;;;;;;26.93;17.20;;;;;;;12.45;91.71;101204.56;5006909;28;20243;-73
2023/09/29 06:15:51;;;;;;;23.13;16.23;;;;;;;12.52;91.87;101209.34;5007951;28;20208;-73
2023/09/29 06:18:17;;;;;;;24.07;16.90;;;;;;;12.57;91.56;101206.50;5007463;28;20227;-72
2023/09/29 06:20:43;;;;;;;22.83;17.50;;;;;;;12.63;91.82;101200.66;5007823;28;20236;-74
2023/09/29 06:23:10;;;;;;;29.77;18.83;;;;;;;12.69;91.85;101203.91;5008680;28;20214;-74
2023/09/29 06:25:36;;;;;;;24.27;17.23;;;;;;;12.77;91.43;101205.69;5007060;28;20208;-73
2023/09/29 06:28:02;;;;;;;26.93;18.10;;;;;;;12.84;90.87;101205.97;4989178;28;20541;-73
2023/09/29 06:30:29;;;;;;;30.67;17.83;;;;;;;12.94;90.77;101202.94;5005588;28;20227;-73
2023/09/29 06:32:57;;;;;;;24.33;17.93;;;;;;;13.03;90.53;101207.06;5004723;28;20220;-73
2023/09/29 06:35:23;;;;;;;29.77;17.97;;;;;;;13.15;90.60;101203.69;5005649;28;20706;-71
2023/09/29 06:37:51;;;;;;;25.43;18.20;;;;;;;13.26;90.19;101207.47;5006159;28;20214;-73
2023/09/29 06:40:17;;;;;;;24.47;18.63;;;;;;;13.39;89.90;101206.41;5003155;28;20285;-73
2023/09/29 06:42:44;;;;;;;26.10;16.70;;;;;;;13.51;90.38;101212.50;5003864;28;20553;-74
2023/09/29 06:45:11;;;;;;;27.50;17.60;;;;;;;13.63;89.51;101215.19;5004102;28;20218;-74
2023/09/29 06:47:37;;;;;;;20.30;16.10;;;;;;;13.81;90.61;101218.44;5007572;28;21057;-71
2023/09/29 06:50:10;;;;;;;20.73;15.47;;;;;;;13.91;88.88;101217.97;4999145;28;20222;-72
2023/09/29 06:52:37;;;;;;;22.27;14.90;;;;;;;14.07;89.60;101226.84;5013772;28;20199;-73
2023/09/29 06:55:04;;;;;;;20.27;14.90;;;;;;;14.18;89.23;101226.03;5016628;28;20211;-72
2023/09/29 06:57:30;;;;;;;17.37;13.50;;;;;;;14.33;88.57;101221.97;5017144;28;20212;-72
2023/09/29 06:59:56;;;;;;;18.80;13.53;;;;;;;14.45;87.47;101225.38;5017266;28;20226;-74
2023/09/29 07:02:23;;;;;;;19.93;12.83;;;;;;;14.61;87.50;101225.44;5013327;28;20214;-71
2023/09/29 07:04:49;;;;;;;21.93;12.37;;;;;;;14.73;86.96;101226.19;5021018;28;20275;-74
2023/09/29 07:07:17;;;;;;;18.70;11.40;;;;;;;14.90;87.38;101225.91;4993826;28;20205;-73
2023/09/29 07:09:43;;;;;;;13.97;11.00;;;;;;;15.06;87.73;101223.31;5001335;28;21582;-74
2023/09/29 07:12:10;;;;;;;15.30;10.50;;;;;;;15.19;87.02;101224.78;5001330;28;20208;-74
2023/09/29 07:14:37;;;;;;;13.10;10.13;;;;;;;15.31;86.88;101233.50;4999585;28;20208;-71
2023/09/29 07:17:03;;;;;;;17.43;10.33;;;;;;;15.46;86.39;101226.66;5001229;28;21494;-75
2023/09/29 07:19:31;;;;;;;15.37;9.70;;;;;;;15.61;85.90;101226.69;4993559;28;20582;-74
2023/09/29 07:21:58;;;;;;;14.67;10.03;;;;;;;15.78;84.62;101222.91;5001280;28;20213;-75
2023/09/29 07:24:26;;;;;;;17.43;10.17;;;;;;;15.94;85.04;101229.75;5000151;28;20251;-74
2023/09/29 07:26:52;;;;;;;12.80;9.23;;;;;;;16.07;84.51;101233.09;5000732;28;20212;-73
2023/09/29 07:29:19;;;;;;;14.87;8.90;;;;;;;16.24;83.88;101236.19;4998238;28;20351;-73
2023/09/29 07:31:47;;;;;;;19.07;9.13;;;;;;;16.40;82.50;101231.63;4998635;28;20211;-73
2023/09/29 07:34:15;;;;;;;16.93;8.20;;;;;;;16.57;82.25;101235.78;4998867;28;20329;-75
2023/09/29 07:36:43;;;;;;;12.13;7.63;;;;;;;16.76;81.32;101233.91;4997469;28;20289;-73
2023/09/29 07:39:10;;;;;;;9.63;7.67;;;;;;;16.94;80.47;101231.59;4996524;28;20311;-74
2023/09/29 07:41:39;;;;;;;10.83;7.90;;;;;;;17.08;80.39;101232.63;4995253;28;20208;-73
2023/09/29 07:44:06;;;;;;;9.90;7.47;;;;;;;17.25;80.47;101239.44;4997105;28;20215;-74
2023/09/29 07:46:33;;;;;;;12.00;7.47;;;;;;;17.41;79.42;101240.13;4996912;28;20581;-74
2023/09/29 07:48:59;;;;;;;8.77;6.93;;;;;;;17.56;79.14;101237.38;4997475;28;20216;-72
2023/09/29 07:51:26;;;;;;;12.43;6.93;;;;;;;17.71;78.91;101244.50;4995523;28;20219;-73
2023/09/29 07:53:52;;;;;;;10.63;7.30;;;;;;;17.84;78.67;101237.03;4996514;28;20212;-74
2023/09/29 07:56:18;;;;;;;8.57;6.60;;;;;;;17.98;78.19;101232.69;4995174;28;21865;-74
2023/09/29 07:58:46;;;;;;;9.87;6.03;;;;;;;18.13;77.50;101226.44;4992842;28;20213;-73
2023/09/29 08:01:12;;;;;;;6.60;5.90;;;;;;;18.25;77.71;101225.44;4994800;28;20674;-73
2023/09/29 08:03:40;;;;;;;10.60;5.67;;;;;;;18.42;75.95;101227.63;4994758;28;20468;-74
2023/09/29 08:06:08;;;;;;;7.60;5.67;;;;;;;18.57;74.77;101232.78;4993020;28;20204;-74
2023/09/29 08:08:35;;;;;;;8.80;5.90;;;;;;;18.67;75.01;101239.44;4991978;28;20255;-74
2023/09/29 08:11:01;;;;;;;8.67;5.70;;;;;;;18.78;74.86;101238.41;4991369;28;20280;-74
2023/09/29 08:13:28;;;;;;;10.83;5.83;;;;;;;18.94;73.19;101232.88;4992086;28;20212;-72
2023/09/29 08:15:56;;;;;;;9.13;5.53;;;;;;;19.04;73.63;101224.94;4993053;28;20209;-73
2023/09/29 08:18:22;;;;;;;9.63;5.80;;;;;;;19.17;72.84;101230.81;4991305;28;20270;-72
2023/09/29 08:20:52;;;;;;;7.00;5.80;;;;;;;19.30;72.11;101226.78;4987416;28;20227;-73
2023/09/29 08:23:18;;;;;;;6.20;5.20;;;;;;;19.42;70.70;101231.88;4986732;28;20209;-74
2023/09/29 08:25:46;;;;;;;8.53;5.60;;;;;;;19.54;71.05;101228.91;4988573;28;20205;-73
2023/09/29 08:28:13;;;;;;;7.93;5.30;;;;;;;19.67;71.58;101233.63;4989689;28;20212;-73
2023/09/29 08:30:39;;;;;;;7.30;5.10;;;;;;;19.85;69.19;101231.88;4989600;28;20353;-73
2023/09/29 08:33:07;;;;;;;5.83;4.70;;;;;;;19.93;70.62;101230.75;4988696;28;20208;-74
2023/09/29 08:35:33;;;;;;;11.70;5.17;;;;;;;20.08;69.63;101224.38;4988749;28;20603;-74
2023/09/29 08:38:00;;;;;;;7.10;4.80;;;;;;;20.22;69.09;101229.84;4988236;28;20204;-74
2023/09/29 08:40:27;;;;;;;6.60;5.03;;;;;;;20.32;68.67;101223.00;4988766;28;20846;-74
2023/09/29 08:42:55;;;;;;;6.20;4.70;;;;;;;20.47;66.85;101225.38;4989092;28;20208;-74
2023/09/29 08:45:23;;;;;;;8.40;4.73;;;;;;;20.58;68.42;101228.88;4988151;28;20567;-74
2023/09/29 08:47:51;;;;;;;6.67;4.40;;;;;;;20.73;67.64;101227.81;4987643;28;20215;-72
2023/09/29 08:50:22;;;;;;;7.87;4.53;;;;;;;20.87;66.55;101225.19;4987666;28;20220;-72
2023/09/29 08:52:50;;;;;;;7.27;4.83;;;;;;;21.07;64.47;101231.00;4986286;28;20587;-72
2023/09/29 08:55:17;;;;;;;7.03;4.73;;;;;;;21.24;65.25;101230.28;4986844;28;20209;-72
2023/09/29 08:57:45;;;;;;;5.07;4.23;;;;;;;21.43;64.30;101230.69;4985026;28;20287;-73
2023/09/29 09:00:13;;;;;;;8.53;4.13;;;;;;;21.61;64.86;101228.00;4979664;28;20228;-74
2023/09/29 09:02:41;;;;;;;8.83;4.10;;;;;;;21.82;65.07;101228.03;4987123;28;20205;-74
2023/09/29 09:05:11;;;;;;;4.80;3.93;;;;;;;22.05;60.64;101223.03;4985600;28;20654;-74
2023/09/29 09:07:39;;;;;;;4.57;3.60;;;;;;;22.17;60.95;101226.09;4985342;28;20805;-74
2023/09/29 09:10:07;;;;;;;7.35;4.18;;;;;;;22.37;60.33;101223.72;4985817;28;20230;-73
2023/09/29 09:12:35;;;;;;;6.25;4.32;;;;;;;22.50;61.16;101225.63;4983792;28;20213;-72
2023/09/29 09:15:03;;;;;;;4.43;3.95;;;;;;;22.62;61.16;101221.75;4984421;28;20208;-72
2023/09/29 09:17:29;;;;;;;5.20;4.45;;;;;;;22.71;60.36;101216.72;4982427;28;20205;-73
2023/09/29 09:19:56;;;;;;;6.20;4.15;;;;;;;22.83;61.67;101218.97;4983201;28;20267;-74
2023/09/29 09:22:25;;;;;;;7.65;4.03;;;;;;;22.99;61.91;101227.34;4986277;28;21339;-73
2023/09/29 09:24:59;;;;;;;11.63;4.35;;;;;;;23.15;62.07;101227.63;4983638;28;20521;-72
2023/09/29 09:27:26;;;;;;;8.52;4.50;;;;;;;23.35;58.75;101228.69;4976323;28;20231;-74
2023/09/29 09:29:53;;;;;;;7.50;4.18;;;;;;;23.49;55.84;101231.28;4957862;28;20355;-73
2023/09/29 09:32:26;;;;;;;6.65;4.65;;;;;;;23.64;56.72;101238.88;4962822;28;21265;-74
2023/09/29 09:34:52;;;;;;;5.72;4.10;;;;;;;23.77;56.61;101239.94;4978822;28;20235;-74
2023/09/29 09:37:25;;;;;;;4.20;3.80;;;;;;;23.85;54.89;101237.94;4980365;28;21182;-75
2023/09/29 09:39:53;;;;;;;7.35;4.18;;;;;;;23.94;55.07;101238.25;4977800;28;20722;-75
2023/09/29 09:42:24;;;;;;;6.85;4.13;;;;;;;24.01;55.82;101226.63;4979646;28;20205;-76
2023/09/29 09:44:53;;;;;;;4.15;3.45;;;;;;;24.07;55.73;101225.03;4960604;28;21162;-76
2023/09/29 09:47:21;;;;;;;6.82;4.10;;;;;;;24.13;56.98;101226.13;4977165;28;20262;-74
2023/09/29 09:49:48;;;;;;;5.78;4.15;;;;;;;24.17;54.70;101226.84;4979609;28;20410;-75
2023/09/29 09:52:30;;;;;;;6.38;4.30;;;;;;;;;;4963168;28;20205;-73
2023/09/29 09:54:58;;;;;;;5.95;3.95;;;;;;;24.23;54.66;101219.84;4979129;28;20342;-74
2023/09/29 09:57:32;;;;;;;5.68;4.03;;;;;;;24.23;53.79;101217.91;4979224;28;20200;-75
2023/09/29 10:00:06;;;;;;;4.60;3.53;;;;;;;24.23;52.52;101217.91;4970638;28;20224;-76
2023/09/29 10:02:35;;;;;;;5.90;4.47;;;;;;;24.23;53.63;101212.53;4975553;28;20635;-74
2023/09/29 10:05:12;;;;;;;6.35;4.07;;;;;;;24.26;54.38;101210.94;4977000;28;20200;-73
2023/09/29 10:07:45;;;;;;;7.75;4.00;;;;;;;24.27;55.35;101215.94;4977862;28;20200;-76
2023/09/29 10:10:11;;;;;;;5.85;4.10;;;;;;;24.29;55.43;101207.47;4961047;28;20225;-74
2023/09/29 10:12:39;;;;;;;5.82;3.75;;;;;;;24.30;55.39;101208.97;4959004;28;20220;-74
2023/09/29 10:15:14;;;;;;;4.30;3.88;;;;;;;24.32;55.52;101209.34;4975308;28;20215;-76
2023/09/29 10:17:41;;;;;;;5.70;4.13;;;;;;;24.34;53.57;101202.38;4976676;28;20251;-75
2023/09/29 10:20:20;;;;;;;4.55;3.72;;;;;;;24.37;54.86;101193.47;4976422;28;20814;-74
2023/09/29 10:22:53;;;;;;;5.15;4.05;;;;;;;24.40;54.82;101200.00;4971768;28;20242;-73
2023/09/29 10:25:20;;;;;;;5.53;3.70;;;;;;;24.42;56.09;101203.84;4975189;28;20208;-75
2023/09/29 10:27:50;;;;;;;4.63;3.80;;;;;;;24.45;54.10;101199.56;4958317;28;20662;-74
2023/09/29 10:30:17;;;;;;;5.10;3.67;;;;;;;24.50;53.10;101201.81;4956998;28;20221;-75
2023/09/29 10:32:45;;;;;;;5.53;3.58;;;;;;;24.57;53.53;101194.41;4976150;28;20211;-75
2023/09/29 10:35:19;;;;;;;11.85;4.15;;;;;;;24.63;52.32;101198.19;4976626;28;20586;-76
2023/09/29 10:37:49;;;;;;;6.40;3.58;;;;;;;24.69;51.72;101190.41;4975192;28;20208;-75
2023/09/29 10:40:25;;;;;;;7.70;3.47;;;;;;;24.73;51.99;101197.31;4971108;28;20224;-74
2023/09/29 10:43:00;;;;;;;5.53;3.80;;;;;;;24.79;52.65;101211.09;4955701;28;20223;-75
2023/09/29 10:45:31;;;;;;;5.43;3.50;;;;;;;24.84;53.81;101216.06;4955887;28;21426;-74
2023/09/29 10:48:01;;;;;;;9.57;3.72;;;;;;;24.90;53.67;101214.41;4967065;28;21849;-74
2023/09/29 10:50:29;;;;;;;5.30;3.60;;;;;;;24.97;51.95;101214.34;4971133;28;20657;-76
2023/09/29 10:52:56;;;;;;;8.32;4.38;;;;;;;25.03;50.69;101212.72;4969307;28;20882;-75
2023/09/29 10:55:22;;;;;;;4.03;3.50;;;;;;;25.08;51.31;101214.97;4953775;28;20767;-76
2023/09/29 10:57:49;;;;;;;7.70;3.50;;;;;;;25.16;50.98;101219.06;4966849;28;20540;-75
2023/09/29 11:00:20;;;;;;;7.85;3.75;;;;;;;25.25;51.34;101214.72;4970478;28;20245;-75
2023/09/29 11:02:49;;;;;;;4.68;3.42;;;;;;;25.34;48.47;101212.25;4971996;28;20208;-74
2023/09/29 11:05:16;;;;;;;5.55;3.22;;;;;;;25.40;53.44;101205.22;4973677;28;20200;-76
2023/09/29 11:07:47;;;;;;;4.18;3.05;;;;;;;25.45;52.42;101210.19;4973575;28;20403;-74
2023/09/29 11:10:15;;;;;;;2.75;2.47;;;;;;;25.48;49.74;101197.78;4968382;28;20596;-74
2023/09/29 11:12:46;;;;;;;4.43;3.20;;;;;;;25.51;50.33;101192.31;4969924;28;20215;-76
2023/09/29 11:15:17;;;;;;;4.30;2.78;;;;;;;25.50;47.22;101190.78;4969541;28;20208;-75